Time;durP1;ratioP1;P1;durP2;ratioP2;P2;SDS_P1;SDS_P2;PMS_P1;PMS_P2;Temp;Humidity;BMP_temperature;BMP_pressure;BME280_temperature;BME280_humidity;BME280_pressure;Samples;Min_cycle;Max_cycle;Signal;HPM_P1;HPM_P2
2023/02/03 00:01:09;;;;;;;15.80;12.27;;;9.00;99.90;;;;;;5060365;28;20202;-77
2023/02/03 00:03:36;;;;;;;12.93;10.45;;;9.10;99.90;;;;;;5056294;28;20277;-76
2023/02/03 00:06:04;;;;;;;17.48;11.55;;;9.10;99.90;;;;;;5057117;28;20232;-79
2023/02/03 00:08:31;;;;;;;17.23;11.60;;;9.00;99.90;;;;;;5064111;28;20657;-77
2023/02/03 00:10:59;;;;;;;17.55;11.05;;;9.10;99.90;;;;;;5057218;28;20657;-76
2023/02/03 00:13:28;;;;;;;17.35;9.25;;;9.20;99.90;;;;;;5055475;28;20286;-78
2023/02/03 00:19:17;;;;;;;9.65;7.90;;;9.10;99.90;;;;;;5054202;28;20603;-76
2023/02/03 00:22:20;;;;;;;11.35;7.45;;;9.10;99.90;;;;;;5061044;28;20287;-78
2023/02/03 00:24:47;;;;;;;15.85;8.90;;;9.20;99.90;;;;;;5047612;28;20301;-77
2023/02/03 00:27:18;;;;;;;10.77;7.53;;;9.20;99.90;;;;;;5073327;28;20190;-77
2023/02/03 00:29:46;;;;;;;14.65;8.15;;;9.10;99.90;;;;;;5069543;28;20547;-78
2023/02/03 00:32:38;;;;;;;11.90;8.13;;;9.10;99.90;;;;;;5058190;28;20567;-79
2023/02/03 00:35:06;;;;;;;11.98;8.40;;;9.10;99.90;;;;;;5052869;28;20326;-77
2023/02/03 00:37:53;;;;;;;9.35;8.43;;;9.10;99.90;;;;;;5052821;28;20289;-77
2023/02/03 00:40:20;;;;;;;12.05;7.20;;;9.10;99.90;;;;;;5053380;28;20291;-77
2023/02/03 00:42:47;;;;;;;12.38;8.60;;;9.10;99.90;;;;;;5052937;28;20286;-78
2023/02/03 00:45:42;;;;;;;12.60;8.07;;;9.10;99.90;;;;;;5053435;28;20273;-78
2023/02/03 00:48:09;;;;;;;15.57;9.13;;;9.00;99.90;;;;;;5053999;28;20301;-78
2023/02/03 00:53:58;;;;;;;14.25;9.40;;;9.00;99.90;;;;;;5053022;28;20628;-78
2023/02/03 00:57:01;;;;;;;9.48;6.65;;;9.10;99.90;;;;;;5053022;28;20319;-77
2023/02/03 00:59:29;;;;;;;11.35;8.63;;;9.10;99.90;;;;;;5052785;28;20621;-77
2023/02/03 01:01:57;;;;;;;10.38;6.30;;;9.00;99.90;;;;;;5053779;28;20223;-78
2023/02/03 01:04:24;;;;;;;12.98;6.43;;;9.00;99.90;;;;;;5050137;28;20215;-79
2023/02/03 01:06:55;;;;;;;10.15;6.72;;;9.00;99.90;;;;;;5052703;28;20230;-79
2023/02/03 01:09:21;;;;;;;8.88;6.70;;;9.00;99.90;;;;;;5054361;28;20210;-78
2023/02/03 01:11:48;;;;;;;11.18;6.07;;;9.10;99.90;;;;;;5053708;28;20204;-78
2023/02/03 01:14:15;;;;;;;7.95;6.07;;;9.00;99.90;;;;;;5061168;28;20241;-78
2023/02/03 01:16:42;;;;;;;13.48;7.25;;;9.10;99.90;;;;;;5054045;28;20709;-78
2023/02/03 01:19:11;;;;;;;6.65;5.30;;;9.00;99.90;;;;;;5054993;28;20279;-77
2023/02/03 01:21:38;;;;;;;6.78;4.63;;;9.00;99.90;;;;;;5059994;28;20661;-77
2023/02/03 01:24:05;;;;;;;10.68;5.35;;;9.00;99.90;;;;;;5062502;28;20563;-77
2023/02/03 01:26:32;;;;;;;9.43;5.38;;;9.00;99.90;;;;;;5063976;28;20242;-78
2023/02/03 01:29:00;;;;;;;11.40;5.40;;;9.00;99.90;;;;;;5054106;28;20242;-77
2023/02/03 01:31:28;;;;;;;8.77;5.60;;;9.10;99.90;;;;;;5059593;28;20760;-77
2023/02/03 01:33:56;;;;;;;11.02;5.22;;;9.00;99.90;;;;;;5063003;28;20353;-77
2023/02/03 01:36:28;;;;;;;7.47;5.45;;;9.10;99.90;;;;;;5049727;28;20235;-78
2023/02/03 01:38:55;;;;;;;6.38;4.35;;;9.10;99.90;;;;;;5049343;28;20204;-77
2023/02/03 01:41:25;;;;;;;10.98;6.38;;;9.10;99.90;;;;;;5060599;28;20290;-77
2023/02/03 01:43:53;;;;;;;8.35;5.57;;;9.10;99.90;;;;;;5059932;28;20287;-78
2023/02/03 01:46:28;;;;;;;8.13;5.35;;;9.10;99.90;;;;;;5058173;28;20231;-78
2023/02/03 01:49:00;;;;;;;12.10;5.18;;;9.10;99.90;;;;;;5061700;28;20230;-77
2023/02/03 01:51:30;;;;;;;9.82;5.38;;;9.10;99.90;;;;;;5054510;28;20203;-77
2023/02/03 01:53:57;;;;;;;8.07;4.80;;;9.10;99.90;;;;;;5057954;28;20207;-77
2023/02/03 01:56:27;;;;;;;7.38;5.57;;;9.10;99.90;;;;;;5063019;28;20640;-77
2023/02/03 01:58:54;;;;;;;9.68;5.30;;;9.10;99.90;;;;;;5067620;28;20289;-77
2023/02/03 02:01:22;;;;;;;8.25;5.55;;;9.10;99.90;;;;;;5064938;28;20301;-77
2023/02/03 02:03:52;;;;;;;9.63;5.55;;;9.10;99.90;;;;;;5049301;28;20292;-77
2023/02/03 02:06:19;;;;;;;12.43;5.78;;;9.10;99.90;;;;;;5057164;28;20234;-78
2023/02/03 02:08:50;;;;;;;12.68;6.00;;;9.00;99.90;;;;;;5049052;28;20207;-78
2023/02/03 02:11:21;;;;;;;11.48;6.35;;;9.10;99.90;;;;;;5049082;28;20210;-77
2023/02/03 02:13:50;;;;;;;9.73;6.22;;;9.10;99.90;;;;;;5049428;28;20199;-78
2023/02/03 02:16:41;;;;;;;7.90;6.30;;;9.10;99.90;;;;;;5059544;28;20626;-77
2023/02/03 02:19:51;;;;;;;10.80;6.72;;;9.10;99.90;;;;;;5047976;28;20204;-76
2023/02/03 02:22:22;;;;;;;9.45;5.65;;;9.10;99.90;;;;;;5066544;28;20597;-76
2023/02/03 02:25:22;;;;;;;10.45;6.65;;;9.20;99.90;;;;;;5072588;28;20663;-77
2023/02/03 02:28:30;;;;;;;11.30;6.10;;;9.20;99.90;;;;;;5055651;28;20234;-77
2023/02/03 02:31:16;;;;;;;9.15;6.78;;;9.10;99.90;;;;;;5022064;28;20298;-76
2023/02/03 02:33:52;;;;;;;7.47;6.28;;;9.20;99.90;;;;;;5058073;28;20232;-78
2023/02/03 02:36:28;;;;;;;8.68;6.20;;;9.20;99.90;;;;;;5048311;28;20270;-77
2023/02/03 02:39:03;;;;;;;8.63;5.88;;;9.20;99.90;;;;;;5063512;28;20281;-77
2023/02/03 02:41:37;;;;;;;10.40;5.53;;;9.10;99.90;;;;;;5055267;28;20284;-78
2023/02/03 02:44:10;;;;;;;16.55;5.90;;;9.20;99.90;;;;;;5056357;28;20191;-76
2023/02/03 02:46:42;;;;;;;5.90;4.75;;;9.20;99.90;;;;;;5060291;28;20229;-76
2023/02/03 02:49:16;;;;;;;7.80;5.20;;;9.20;99.90;;;;;;5060087;28;20211;-78
2023/02/03 02:51:44;;;;;;;10.30;4.93;;;9.20;99.90;;;;;;5058660;28;20794;-78
2023/02/03 02:54:17;;;;;;;5.97;4.15;;;9.20;99.90;;;;;;5056762;28;20202;-77
2023/02/03 02:56:47;;;;;;;7.20;3.97;;;9.20;99.90;;;;;;5065785;28;20254;-80
2023/02/03 02:59:15;;;;;;;7.05;4.38;;;9.20;99.90;;;;;;5055710;28;20235;-76
2023/02/03 03:01:42;;;;;;;6.75;5.07;;;9.20;99.90;;;;;;5066178;28;20276;-77
2023/02/03 03:04:13;;;;;;;7.63;4.63;;;9.30;99.90;;;;;;5050406;28;20239;-79
2023/02/03 03:06:44;;;;;;;7.07;4.75;;;9.30;99.90;;;;;;5058945;28;20742;-78
2023/02/03 03:09:16;;;;;;;12.30;3.58;;;9.30;99.90;;;;;;5068516;28;20210;-78
2023/02/03 03:11:50;;;;;;;5.90;4.68;;;9.30;99.90;;;;;;5066330;28;20286;-77
2023/02/03 03:14:20;;;;;;;8.00;4.22;;;9.30;99.90;;;;;;5070582;28;20211;-78
2023/02/03 03:16:52;;;;;;;7.22;4.38;;;9.30;99.90;;;;;;5070572;28;20223;-78
2023/02/03 03:19:24;;;;;;;12.93;4.25;;;9.30;99.90;;;;;;5066513;28;20199;-78
2023/02/03 03:21:54;;;;;;;5.47;3.50;;;9.40;99.90;;;;;;5069283;28;20650;-79
2023/02/03 03:24:27;;;;;;;15.15;5.22;;;9.40;99.90;;;;;;5063225;28;20570;-77
2023/02/03 03:27:01;;;;;;;9.85;4.05;;;9.30;99.90;;;;;;5058844;28;20250;-79
2023/02/03 03:29:34;;;;;;;5.45;3.90;;;9.30;99.90;;;;;;5055889;28;20660;-79
2023/02/03 03:32:01;;;;;;;7.95;3.88;;;9.30;99.90;;;;;;5052570;28;20287;-78
2023/02/03 03:34:31;;;;;;;9.65;5.03;;;9.30;99.90;;;;;;5051685;28;20612;-81
2023/02/03 03:37:03;;;;;;;10.45;4.38;;;9.40;99.90;;;;;;5052393;28;20326;-77
2023/02/03 03:39:36;;;;;;;6.10;3.88;;;9.40;99.90;;;;;;5057446;28;20568;-77
2023/02/03 03:42:09;;;;;;;7.75;4.55;;;9.40;99.90;;;;;;5045673;28;20211;-77
2023/02/03 03:44:42;;;;;;;9.02;3.75;;;9.50;99.90;;;;;;5059822;28;20225;-77
2023/02/03 03:47:14;;;;;;;4.57;3.45;;;9.40;99.90;;;;;;5062668;28;20200;-77
2023/02/03 03:49:47;;;;;;;14.25;4.65;;;9.40;99.90;;;;;;5054791;28;20291;-79
2023/02/03 03:52:18;;;;;;;11.75;4.68;;;9.40;99.90;;;;;;5059766;28;20239;-77
2023/02/03 03:54:47;;;;;;;14.32;5.30;;;9.40;99.90;;;;;;5066784;28;20233;-78
2023/02/03 03:57:18;;;;;;;6.60;4.70;;;9.40;99.90;;;;;;5063963;28;20239;-76
2023/02/03 04:06:38;;;;;;;9.55;5.13;;;9.40;99.90;;;;;;4980867;28;20255;-85
2023/02/03 04:09:05;;;;;;;11.80;4.65;;;9.40;99.90;;;;;;4970963;28;20208;-86
2023/02/03 04:14:16;;;;;;;16.00;5.70;;;9.40;99.90;;;;;;4988101;28;20240;-86
2023/02/03 04:16:43;;;;;;;10.95;5.63;;;9.50;99.90;;;;;;4994526;28;20415;-86
2023/02/03 04:19:10;;;;;;;6.72;4.65;;;9.40;99.90;;;;;;4989657;28;20270;-87
2023/02/03 04:21:39;;;;;;;9.35;6.20;;;9.50;99.90;;;;;;4995707;28;20197;-87
2023/02/03 04:24:07;;;;;;;8.65;5.72;;;9.40;99.90;;;;;;4989131;28;20647;-86
2023/02/03 04:26:33;;;;;;;11.88;5.82;;;9.30;99.90;;;;;;4997432;28;20234;-87
2023/02/03 04:29:01;;;;;;;16.52;5.70;;;9.50;99.90;;;;;;4989074;28;20221;-86
2023/02/03 04:31:28;;;;;;;9.40;6.40;;;9.30;99.90;;;;;;4986185;28;20232;-86
2023/02/03 04:33:55;;;;;;;11.88;5.78;;;9.30;99.90;;;;;;5001180;28;20253;-86
2023/02/03 04:36:22;;;;;;;7.53;5.95;;;9.30;99.90;;;;;;5001772;28;20229;-87
2023/02/03 04:38:50;;;;;;;16.52;6.28;;;9.20;99.90;;;;;;4998226;28;20202;-86
2023/02/03 04:41:17;;;;;;;13.98;5.95;;;9.20;99.90;;;;;;4986463;28;20210;-87
2023/02/03 04:43:44;;;;;;;18.83;4.97;;;9.20;99.90;;;;;;4996387;28;20202;-86
2023/02/03 04:46:12;;;;;;;11.15;5.97;;;8.90;99.90;;;;;;4989978;28;20264;-87
2023/02/03 04:48:39;;;;;;;9.63;5.53;;;9.10;99.90;;;;;;4992768;28;20217;-86
2023/02/03 04:51:08;;;;;;;10.25;6.00;;;9.10;99.90;;;;;;4996325;28;20221;-86
2023/02/03 04:53:36;;;;;;;11.27;5.30;;;9.20;99.90;;;;;;4994574;28;20186;-86
2023/02/03 04:56:08;;;;;;;12.15;5.57;;;8.90;99.90;;;;;;5000921;28;20239;-84
2023/02/03 04:58:37;;;;;;;10.20;5.15;;;9.00;99.90;;;;;;4991982;28;20249;-87
2023/02/03 05:01:08;;;;;;;9.30;4.95;;;9.10;99.90;;;;;;4994688;28;20207;-86
2023/02/03 05:03:35;;;;;;;6.97;5.03;;;9.00;99.90;;;;;;4998431;28;20206;-86
2023/02/03 05:06:04;;;;;;;10.55;5.43;;;9.10;99.90;;;;;;4998793;28;20231;-86
2023/02/03 05:08:31;;;;;;;8.38;4.13;;;9.10;99.90;;;;;;5000794;28;20194;-87
2023/02/03 05:10:59;;;;;;;9.40;5.70;;;9.20;99.90;;;;;;4984801;28;20196;-86
2023/02/03 05:13:28;;;;;;;9.73;5.43;;;9.30;99.90;;;;;;4978234;28;20212;-86
2023/02/03 05:15:56;;;;;;;15.85;4.57;;;9.20;99.90;;;;;;4989833;28;20187;-86
2023/02/03 05:18:24;;;;;;;7.20;3.65;;;9.30;99.90;;;;;;4988188;28;20182;-86
2023/02/03 05:20:52;;;;;;;9.30;4.38;;;9.40;99.90;;;;;;4997806;28;20250;-85
2023/02/03 05:23:19;;;;;;;5.05;4.55;;;9.40;99.90;;;;;;5005981;28;20195;-86
2023/02/03 05:25:46;;;;;;;13.55;4.30;;;9.40;99.90;;;;;;4980438;28;20230;-87
2023/02/03 05:28:13;;;;;;;7.95;4.45;;;9.30;99.90;;;;;;5003189;28;20183;-86
2023/02/03 05:30:41;;;;;;;11.38;4.45;;;9.50;99.90;;;;;;4992509;28;20203;-87
2023/02/03 05:33:09;;;;;;;10.18;4.85;;;9.40;99.90;;;;;;4989664;28;20195;-87
2023/02/03 05:35:36;;;;;;;14.20;3.55;;;9.40;99.90;;;;;;4991277;28;20199;-86
2023/02/03 05:38:03;;;;;;;11.65;5.63;;;9.40;99.90;;;;;;4998018;28;20245;-86
2023/02/03 05:43:15;;;;;;;9.55;5.45;;;9.40;99.90;;;;;;4987228;28;20336;-86
2023/02/03 05:45:44;;;;;;;9.32;5.70;;;9.30;99.90;;;;;;5012767;28;20241;-86
2023/02/03 05:48:11;;;;;;;12.30;4.93;;;9.20;99.90;;;;;;4992787;28;20199;-87
2023/02/03 05:50:39;;;;;;;15.65;4.60;;;9.10;99.90;;;;;;4991480;28;20279;-87
2023/02/03 05:53:07;;;;;;;10.77;4.50;;;9.20;99.90;;;;;;4986322;28;20187;-86
2023/02/03 05:55:35;;;;;;;8.50;5.15;;;9.20;99.90;;;;;;4996107;28;20247;-86
2023/02/03 05:58:03;;;;;;;12.73;4.68;;;9.10;99.90;;;;;;5006271;28;20210;-87
2023/02/03 06:00:31;;;;;;;10.20;4.38;;;9.10;99.90;;;;;;4987363;28;20209;-86
2023/02/03 06:03:04;;;;;;;16.38;4.55;;;9.10;99.90;;;;;;4993214;28;20233;-86
2023/02/03 06:05:33;;;;;;;8.07;4.10;;;9.10;99.90;;;;;;4989457;28;20278;-88
2023/02/03 06:08:01;;;;;;;14.68;5.47;;;9.10;99.90;;;;;;4991004;28;20234;-87
2023/02/03 06:10:28;;;;;;;11.88;6.30;;;9.10;99.90;;;;;;4987108;28;20237;-86
2023/02/03 06:12:55;;;;;;;13.40;5.53;;;9.10;99.90;;;;;;4995963;28;20202;-87
2023/02/03 06:15:22;;;;;;;10.35;4.75;;;9.00;99.90;;;;;;5011591;28;20209;-88
2023/02/03 06:17:49;;;;;;;16.23;6.03;;;9.00;99.90;;;;;;4996524;28;20233;-87
2023/02/03 06:20:19;;;;;;;9.40;5.88;;;9.10;99.90;;;;;;4992570;28;20203;-86
2023/02/03 06:22:46;;;;;;;9.25;5.13;;;9.00;99.90;;;;;;4993586;28;20194;-88
2023/02/03 06:25:14;;;;;;;16.13;5.63;;;9.00;99.90;;;;;;4993572;28;20206;-88
2023/02/03 06:27:41;;;;;;;14.63;6.28;;;8.90;99.90;;;;;;4981541;28;20222;-87
2023/02/03 06:30:10;;;;;;;10.32;5.88;;;8.70;99.90;;;;;;4997457;28;20225;-86
2023/02/03 06:32:37;;;;;;;8.75;6.28;;;8.70;99.90;;;;;;5003464;28;20202;-88
2023/02/03 06:35:04;;;;;;;10.43;5.90;;;8.70;99.90;;;;;;4980603;28;20215;-87
2023/02/03 06:37:36;;;;;;;13.88;6.05;;;8.70;99.90;;;;;;4993112;28;20218;-86
2023/02/03 06:40:04;;;;;;;14.73;6.65;;;8.80;99.90;;;;;;4978547;28;20203;-87
2023/02/03 06:42:32;;;;;;;18.13;6.72;;;8.70;99.90;;;;;;5010980;28;20536;-85
2023/02/03 06:44:59;;;;;;;14.80;6.63;;;8.70;99.90;;;;;;4990527;28;20203;-87
2023/02/03 06:47:26;;;;;;;9.07;5.03;;;8.80;99.90;;;;;;4980590;28;20236;-87
2023/02/03 06:49:56;;;;;;;11.30;5.82;;;8.80;99.90;;;;;;4987666;28;20206;-86
2023/02/03 06:52:28;;;;;;;12.77;5.75;;;8.90;99.90;;;;;;4986869;28;20241;-86
2023/02/03 06:55:09;;;;;;;10.80;6.28;;;8.90;99.90;;;;;;4990128;28;20206;-88
2023/02/03 06:57:43;;;;;;;10.88;5.03;;;8.90;99.90;;;;;;4993066;28;20264;-88
2023/02/03 07:00:13;;;;;;;13.38;5.82;;;9.00;99.90;;;;;;4983275;28;20263;-88
2023/02/03 07:03:06;;;;;;;9.85;4.65;;;9.00;99.90;;;;;;4983022;28;20226;-89
2023/02/03 07:08:19;;;;;;;12.13;3.90;;;9.20;99.90;;;;;;4990205;28;20207;-88
2023/02/03 07:10:48;;;;;;;6.85;4.40;;;9.30;99.90;;;;;;4990884;28;20218;-86
2023/02/03 07:13:15;;;;;;;8.68;3.65;;;9.30;99.90;;;;;;4986620;28;20264;-86
2023/02/03 07:15:42;;;;;;;9.98;3.83;;;9.40;99.90;;;;;;5056865;28;20191;-86
2023/02/03 07:18:09;;;;;;;7.10;4.50;;;9.40;99.90;;;;;;4988693;28;20224;-86
2023/02/03 07:20:36;;;;;;;8.70;4.28;;;9.50;99.90;;;;;;4988804;28;20296;-85
2023/02/03 07:23:04;;;;;;;7.95;4.65;;;9.60;99.90;;;;;;4989444;28;20234;-86
2023/02/03 07:25:32;;;;;;;6.38;4.13;;;9.60;99.90;;;;;;4982345;28;20231;-84
2023/02/03 07:28:01;;;;;;;14.00;4.65;;;9.60;99.90;;;;;;4974925;28;20207;-86
2023/02/03 07:33:34;;;;;;;6.63;3.85;;;9.80;99.90;;;;;;4974700;28;20657;-84
2023/02/03 07:36:02;;;;;;;11.52;3.42;;;9.70;99.90;;;;;;4984197;28;20226;-85
2023/02/03 07:38:31;;;;;;;9.82;3.63;;;9.80;99.90;;;;;;4986024;28;20227;-86
2023/02/03 07:40:58;;;;;;;10.50;3.50;;;9.80;99.90;;;;;;4990078;28;20228;-84
2023/02/03 07:43:27;;;;;;;10.25;3.25;;;9.80;99.90;;;;;;4989835;28;20215;-83
2023/02/03 07:45:54;;;;;;;8.60;4.05;;;9.90;99.90;;;;;;4989057;28;20234;-84
2023/02/03 07:48:21;;;;;;;6.20;3.92;;;9.90;99.90;;;;;;4987289;28;20249;-84
2023/02/03 07:50:49;;;;;;;11.43;3.65;;;9.90;99.90;;;;;;4991176;28;20208;-84
2023/02/03 07:53:16;;;;;;;11.68;3.75;;;10.00;99.90;;;;;;4996337;28;20217;-84
2023/02/03 07:55:43;;;;;;;13.45;4.55;;;10.00;99.90;;;;;;4988930;28;20241;-83
2023/02/03 07:58:10;;;;;;;10.70;3.40;;;10.10;99.90;;;;;;4995739;28;20204;-86
2023/02/03 08:00:38;;;;;;;9.57;3.97;;;10.10;99.90;;;;;;4995862;28;20195;-85
2023/02/03 08:03:05;;;;;;;11.48;4.10;;;10.20;99.90;;;;;;5059227;28;20252;-85
2023/02/03 08:05:32;;;;;;;10.00;5.07;;;10.10;99.90;;;;;;5085404;28;20219;-86
2023/02/03 08:07:59;;;;;;;13.30;3.47;;;10.10;99.90;;;;;;4994869;28;20239;-85
2023/02/03 08:10:26;;;;;;;11.15;3.33;;;10.20;99.90;;;;;;4990953;28;20213;-85
2023/02/03 08:13:02;;;;;;;16.58;3.35;;;10.10;99.90;;;;;;4990814;28;20194;-85
2023/02/03 08:15:29;;;;;;;7.13;2.92;;;10.20;99.90;;;;;;4990867;28;20211;-86
2023/02/03 08:17:57;;;;;;;10.65;3.58;;;10.20;99.90;;;;;;4989264;28;20235;-85
2023/02/03 08:20:25;;;;;;;17.65;3.80;;;10.20;99.90;;;;;;4989521;28;20236;-86
2023/02/03 08:22:53;;;;;;;10.23;3.50;;;10.20;99.90;;;;;;4998485;28;20209;-85
2023/02/03 08:25:20;;;;;;;11.05;3.67;;;10.30;99.90;;;;;;4984665;28;20220;-84
2023/02/03 08:27:49;;;;;;;22.98;7.53;;;10.40;99.90;;;;;;4981919;28;20255;-87
2023/02/03 08:30:16;;;;;;;14.23;4.20;;;10.30;99.90;;;;;;4995177;28;20227;-85
2023/02/03 08:33:02;;;;;;;12.10;4.85;;;10.40;99.90;;;;;;4996964;28;20179;-85
2023/02/03 08:35:37;;;;;;;6.22;3.22;;;10.40;99.90;;;;;;4987265;28;20230;-83
2023/02/03 08:38:04;;;;;;;12.95;3.90;;;10.50;99.90;;;;;;5004802;28;20210;-83
2023/02/03 08:40:31;;;;;;;9.90;3.45;;;10.50;99.90;;;;;;4991803;28;20196;-83
2023/02/03 08:42:58;;;;;;;9.35;3.95;;;10.50;99.90;;;;;;4995286;28;20222;-85
2023/02/03 08:45:25;;;;;;;11.20;3.58;;;10.60;99.90;;;;;;4977417;28;20199;-83
2023/02/03 08:47:52;;;;;;;8.32;3.33;;;10.60;99.90;;;;;;4992649;28;20222;-83
2023/02/03 08:50:19;;;;;;;18.33;3.65;;;10.60;99.90;;;;;;4988566;28;20263;-82
2023/02/03 08:52:47;;;;;;;12.65;3.80;;;10.60;99.90;;;;;;5011730;28;20212;-83
2023/02/03 08:55:15;;;;;;;10.88;4.20;;;10.60;99.90;;;;;;4986917;28;20217;-85
2023/02/03 08:57:43;;;;;;;13.38;3.55;;;10.60;99.90;;;;;;4986473;28;20294;-86
2023/02/03 09:00:11;;;;;;;13.43;2.95;;;10.60;99.90;;;;;;4990798;28;20212;-84
2023/02/03 09:02:38;;;;;;;14.60;3.75;;;10.50;99.90;;;;;;4996336;28;20219;-84
2023/02/03 09:05:06;;;;;;;12.32;4.53;;;10.50;99.90;;;;;;4997370;28;20199;-85
2023/02/03 09:07:33;;;;;;;17.33;4.00;;;10.50;99.90;;;;;;4989607;28;20231;-86
2023/02/03 09:10:01;;;;;;;24.17;4.78;;;10.60;99.90;;;;;;4982711;28;20212;-86
2023/02/03 09:12:29;;;;;;;17.90;4.55;;;10.60;99.90;;;;;;4994458;28;20203;-83
2023/02/03 09:14:57;;;;;;;8.55;3.20;;;10.20;99.90;;;;;;4996462;28;20218;-84
2023/02/03 09:17:23;;;;;;;11.85;3.60;;;10.10;99.90;;;;;;4993756;28;20220;-85
2023/02/03 09:19:50;;;;;;;15.60;3.90;;;9.90;99.90;;;;;;4994140;28;20194;-85
2023/02/03 09:22:17;;;;;;;12.10;4.43;;;9.90;99.90;;;;;;4995348;28;20210;-83
2023/02/03 09:24:44;;;;;;;7.60;2.95;;;9.80;99.90;;;;;;4996928;28;20189;-83
2023/02/03 09:27:12;;;;;;;10.88;3.35;;;9.70;99.90;;;;;;4985305;28;20310;-86
2023/02/03 09:29:39;;;;;;;24.42;3.90;;;9.70;99.90;;;;;;4994172;28;20207;-85
2023/02/03 09:32:09;;;;;;;17.33;4.53;;;9.80;99.90;;;;;;4995202;28;20202;-85
2023/02/03 09:34:36;;;;;;;12.82;6.07;;;9.70;99.90;;;;;;4990851;28;20299;-86
2023/02/03 09:37:03;;;;;;;15.05;4.60;;;9.80;99.90;;;;;;4992562;28;20250;-86
2023/02/03 09:39:30;;;;;;;17.95;5.35;;;9.80;99.90;;;;;;4981056;28;20214;-86
2023/02/03 09:42:10;;;;;;;12.98;3.83;;;9.70;99.90;;;;;;4986013;28;20242;-78
2023/02/03 09:44:45;;;;;;;16.02;3.58;;;9.80;99.90;;;;;;4983815;28;20271;-81
2023/02/03 09:50:02;;;;;;;14.07;3.58;;;10.00;99.90;;;;;;4985885;28;20264;-83
2023/02/03 09:52:33;;;;;;;16.88;4.35;;;10.10;99.90;;;;;;4985626;28;20223;-82
2023/02/03 10:02:19;;;;;;;24.30;4.57;;;10.90;99.90;;;;;;5006988;23;20256;-73
2023/02/03 10:05:01;;;;;;;9.73;3.58;;;10.90;99.90;;;;;;5062001;22;20216;-85
2023/02/03 10:11:40;;;;;;;23.95;6.72;;;11.40;99.90;;;;;;4959920;28;20217;-85
2023/02/03 10:14:21;;;;;;;15.90;4.97;;;11.60;99.90;;;;;;4976588;28;20201;-82
2023/02/03 10:17:18;;;;;;;15.00;4.88;;;11.90;99.90;;;;;;5027140;28;20239;-85
2023/02/03 10:19:49;;;;;;;20.45;6.50;;;12.20;99.90;;;;;;5022582;28;20224;-85
2023/02/03 10:22:20;;;;;;;11.57;5.05;;;12.50;99.90;;;;;;5030248;28;20219;-82
2023/02/03 10:24:55;;;;;;;21.35;5.53;;;12.80;99.90;;;;;;5024043;28;20293;-83
2023/02/03 10:27:24;;;;;;;20.73;5.95;;;13.00;99.90;;;;;;5031943;28;20248;-81
2023/02/03 10:29:56;;;;;;;25.17;5.70;;;13.20;99.90;;;;;;5026991;28;20205;-82
2023/02/03 10:32:27;;;;;;;35.03;5.57;;;13.10;99.90;;;;;;5025279;28;20232;-82
2023/02/03 10:34:54;;;;;;;24.20;5.78;;;13.00;99.90;;;;;;5022089;28;20244;-83
2023/02/03 10:37:27;;;;;;;21.33;5.30;;;13.00;99.90;;;;;;5027923;28;20228;-84
2023/02/03 10:39:55;;;;;;;20.10;5.90;;;13.10;99.90;;;;;;5022564;28;20208;-83
2023/02/03 10:42:23;;;;;;;20.20;5.78;;;13.10;99.90;;;;;;5027410;28;20264;-81
2023/02/03 10:45:05;;;;;;;22.27;5.95;;;13.40;99.90;;;;;;5027170;28;20335;-84
2023/02/03 10:47:35;;;;;;;29.92;5.85;;;13.60;99.90;;;;;;5020658;28;20233;-82
2023/02/03 10:50:06;;;;;;;21.63;5.60;;;13.50;99.90;;;;;;5028071;28;20205;-86
2023/02/03 10:52:35;;;;;;;30.23;6.55;;;13.40;99.90;;;;;;5022182;28;20205;-83
2023/02/03 10:55:07;;;;;;;30.45;6.75;;;13.10;99.90;;;;;;5018244;28;20240;-83
2023/02/03 10:57:38;;;;;;;22.27;6.60;;;13.00;99.90;;;;;;5020983;28;20275;-83
2023/02/03 11:00:22;;;;;;;26.50;6.47;;;12.90;99.90;;;;;;5023294;28;20240;-84
2023/02/03 11:02:58;;;;;;;26.67;6.35;;;12.80;99.90;;;;;;5024811;28;20243;-84
2023/02/03 11:05:25;;;;;;;29.08;7.32;;;12.50;99.90;;;;;;5021060;28;20303;-84
2023/02/03 11:07:53;;;;;;;35.65;7.05;;;12.30;99.90;;;;;;5016498;28;20232;-85
2023/02/03 11:10:29;;;;;;;18.08;6.75;;;12.30;99.90;;;;;;5010358;28;20215;-83
2023/02/03 11:13:12;;;;;;;22.08;7.40;;;12.30;99.90;;;;;;5015910;28;20700;-85
2023/02/03 11:18:52;;;;;;;30.13;7.50;;;12.40;99.90;;;;;;5026547;28;20224;-83
2023/02/03 11:21:21;;;;;;;22.02;5.68;;;12.10;99.90;;;;;;5021341;28;20223;-83
2023/02/03 11:23:54;;;;;;;28.42;7.18;;;11.90;99.90;;;;;;5019204;28;20240;-84
2023/02/03 11:26:28;;;;;;;21.45;5.50;;;11.80;99.90;;;;;;5016888;28;20240;-83
2023/02/03 11:29:04;;;;;;;14.35;4.97;;;11.70;99.90;;;;;;5016650;28;20235;-84
2023/02/03 11:31:34;;;;;;;25.02;6.93;;;11.80;99.90;;;;;;5016065;28;20630;-84
2023/02/03 11:34:10;;;;;;;17.08;5.05;;;11.90;99.90;;;;;;5021990;28;20276;-82
2023/02/03 11:36:37;;;;;;;17.05;6.25;;;12.00;99.90;;;;;;5006724;28;20227;-84
2023/02/03 11:39:27;;;;;;;27.90;7.05;;;12.00;99.90;;;;;;5014481;28;20653;-85
2023/02/03 11:41:58;;;;;;;20.20;7.63;;;11.90;99.90;;;;;;5006832;28;20215;-85
2023/02/03 11:44:28;;;;;;;24.42;5.78;;;11.60;99.90;;;;;;5015879;28;20339;-86
2023/02/03 11:46:58;;;;;;;27.95;6.18;;;11.50;99.90;;;;;;5014786;28;20210;-85
2023/02/03 11:49:53;;;;;;;23.98;6.10;;;11.50;99.90;;;;;;5014974;28;20200;-83
2023/02/03 11:52:41;;;;;;;21.92;6.85;;;11.30;99.90;;;;;;5007524;28;20196;-84
2023/02/03 11:55:20;;;;;;;18.52;5.25;;;11.30;99.90;;;;;;5015747;28;20243;-81
2023/02/03 11:57:59;;;;;;;26.60;6.30;;;11.10;99.90;;;;;;5031364;28;20196;-83
2023/02/03 12:00:35;;;;;;;20.20;5.38;;;11.10;99.90;;;;;;5034817;28;20206;-84
2023/02/03 12:03:31;;;;;;;28.92;6.13;;;11.00;99.90;;;;;;5023924;28;20285;-84
2023/02/03 12:06:22;;;;;;;18.50;7.80;;;11.10;99.90;;;;;;5018461;28;20283;-85
2023/02/03 12:09:11;;;;;;;19.20;5.93;;;11.10;99.90;;;;;;5022031;28;20219;-83
2023/02/03 12:12:02;;;;;;;25.83;7.78;;;11.20;99.90;;;;;;5016947;28;20219;-84
2023/02/03 12:14:41;;;;;;;20.60;5.28;;;11.30;99.90;;;;;;5010967;28;20232;-83
2023/02/03 12:17:34;;;;;;;22.83;6.22;;;11.30;99.90;;;;;;5010857;28;20211;-85
2023/02/03 12:20:22;;;;;;;22.67;4.78;;;11.30;99.90;;;;;;5017554;28;20243;-85
2023/02/03 12:22:55;;;;;;;24.80;6.53;;;11.20;99.90;;;;;;5017192;28;20210;-84
2023/02/03 12:25:32;;;;;;;26.73;7.93;;;11.20;99.90;;;;;;5015835;28;20230;-84
2023/02/03 12:28:13;;;;;;;16.52;4.85;;;11.10;99.90;;;;;;5020541;28;20212;-84
2023/02/03 12:30:45;;;;;;;14.65;4.55;;;11.10;99.90;;;;;;5019797;28;20236;-85
2023/02/03 12:33:18;;;;;;;24.20;5.70;;;11.10;99.90;;;;;;5016548;28;20219;-85
2023/02/03 12:35:52;;;;;;;21.25;5.65;;;11.20;99.90;;;;;;5020377;28;20229;-84
2023/02/03 12:38:36;;;;;;;22.48;7.47;;;11.20;99.90;;;;;;5015121;28;20225;-84
2023/02/03 12:41:08;;;;;;;21.85;6.18;;;11.30;99.90;;;;;;5020492;28;20198;-84
2023/02/03 12:43:39;;;;;;;20.73;6.50;;;11.30;99.90;;;;;;5014869;28;20246;-84
2023/02/03 12:46:14;;;;;;;22.38;5.57;;;11.30;99.90;;;;;;5017863;28;20236;-83
2023/02/03 12:48:50;;;;;;;18.13;5.28;;;11.10;99.90;;;;;;5017902;28;20326;-84
2023/02/03 12:51:28;;;;;;;18.33;4.50;;;11.00;99.90;;;;;;5017597;28;20295;-84
2023/02/03 12:54:01;;;;;;;24.88;5.35;;;11.00;99.90;;;;;;5017562;28;20222;-84
2023/02/03 12:56:35;;;;;;;23.60;4.97;;;11.10;99.90;;;;;;5010582;28;20228;-83
2023/02/03 12:59:12;;;;;;;16.00;5.28;;;11.20;99.90;;;;;;5018774;28;20195;-86
2023/02/03 13:01:45;;;;;;;14.18;4.60;;;11.20;99.90;;;;;;5020022;28;20230;-86
2023/02/03 13:04:24;;;;;;;19.05;4.88;;;11.10;99.90;;;;;;5019368;28;20205;-85
2023/02/03 13:06:58;;;;;;;21.40;5.22;;;11.10;99.90;;;;;;5019736;28;20214;-85
2023/02/03 13:09:31;;;;;;;18.45;4.35;;;11.20;99.90;;;;;;5019505;28;20207;-84
2023/02/03 13:12:05;;;;;;;19.77;4.65;;;11.00;99.90;;;;;;5021130;28;20204;-84
2023/02/03 13:14:36;;;;;;;23.15;5.05;;;11.10;99.90;;;;;;5013295;28;20242;-84
2023/02/03 13:17:10;;;;;;;24.02;4.72;;;10.90;99.90;;;;;;5021013;28;20277;-82
2023/02/03 13:19:43;;;;;;;16.20;3.95;;;10.80;99.90;;;;;;5017095;28;20264;-83
2023/02/03 13:22:12;;;;;;;16.27;3.75;;;10.80;99.90;;;;;;5022506;28;20268;-85
2023/02/03 13:24:43;;;;;;;25.05;4.28;;;10.80;99.90;;;;;;5014195;28;20225;-84
2023/02/03 13:27:35;;;;;;;18.80;5.10;;;10.80;99.90;;;;;;5023380;28;20198;-84
2023/02/03 13:30:34;;;;;;;18.08;5.28;;;10.70;99.90;;;;;;5018777;28;20274;-83
2023/02/03 13:33:20;;;;;;;44.67;8.63;;;10.70;99.90;;;;;;5016759;28;20201;-82
2023/02/03 13:35:59;;;;;;;15.68;6.05;;;10.70;99.90;;;;;;5030125;28;20233;-84
2023/02/03 13:38:48;;;;;;;22.15;5.25;;;10.60;99.90;;;;;;5011966;28;20261;-85
2023/02/03 13:41:22;;;;;;;24.38;5.45;;;10.50;99.90;;;;;;5012704;28;20663;-84
2023/02/03 13:43:51;;;;;;;17.45;4.45;;;10.50;99.90;;;;;;5016711;28;20622;-83
2023/02/03 13:46:22;;;;;;;13.73;4.82;;;10.50;99.90;;;;;;5020816;28;20243;-84
2023/02/03 13:48:51;;;;;;;27.85;5.38;;;10.40;99.90;;;;;;5018269;28;20281;-83
2023/02/03 13:51:21;;;;;;;26.58;6.20;;;10.50;99.90;;;;;;5019380;28;20268;-84